createdAt,value
2023-04-15T00:01:05.940Z,98198.25
2023-04-15T00:03:34.485Z,98204.47
2023-04-15T00:06:01.673Z,98194.88
2023-04-15T00:08:28.934Z,98185.81
2023-04-15T00:10:55.573Z,98187.59
2023-04-15T00:13:22.145Z,98193.56
2023-04-15T00:15:48.706Z,98193.78
2023-04-15T00:18:15.292Z,98191.41
2023-04-15T00:20:41.860Z,98192.72
2023-04-15T00:23:08.565Z,98185.75
2023-04-15T00:25:35.174Z,98188.41
2023-04-15T00:28:01.746Z,98186.09
2023-04-15T00:30:28.397Z,98192.56
2023-04-15T00:32:55.357Z,98191.50
2023-04-15T00:35:22.496Z,98196.69
2023-04-15T00:37:51.593Z,98185.03
2023-04-15T00:40:20.938Z,98194.66
2023-04-15T00:42:47.934Z,98184.78
2023-04-15T00:45:14.638Z,98182.13
2023-04-15T00:47:43.259Z,98186.31
2023-04-15T00:50:11.162Z,98181.47
2023-04-15T00:52:39.053Z,98176.75
2023-04-15T00:55:06.635Z,98173.06
2023-04-15T00:57:33.536Z,98175.34
2023-04-15T01:00:01.059Z,98175.78
2023-04-15T01:02:28.118Z,98170.59
2023-04-15T01:04:54.856Z,98174.19
2023-04-15T01:07:21.448Z,98171.09
2023-04-15T01:09:48.110Z,98159.72
2023-04-15T01:12:16.605Z,98160.75
2023-04-15T01:14:43.552Z,98157.19
2023-04-15T01:17:10.225Z,98163.13
2023-04-15T01:19:37.193Z,98159.22
2023-04-15T01:22:05.290Z,98165.72
2023-04-15T01:24:33.229Z,98159.22
2023-04-15T01:27:00.027Z,98166.22
2023-04-15T01:29:27.477Z,98165.72
2023-04-15T01:31:55.929Z,98156.19
2023-04-15T01:34:25.900Z,98153.88
2023-04-15T01:36:53.936Z,98143.72
2023-04-15T01:39:21.733Z,98147.78
2023-04-15T01:41:48.601Z,98142.00
2023-04-15T01:44:16.463Z,98154.94
2023-04-15T01:46:43.144Z,98150.78
2023-04-15T01:49:09.746Z,98152.34
2023-04-15T01:51:36.369Z,98145.88
2023-04-15T01:54:03.149Z,98143.53
2023-04-15T01:56:30.109Z,98145.69
2023-04-15T01:58:57.005Z,98136.41
2023-04-15T02:01:23.994Z,98137.75
2023-04-15T02:03:50.779Z,98127.91
2023-04-15T02:06:18.378Z,98126.44
2023-04-15T02:08:45.182Z,98131.84
2023-04-15T02:11:11.960Z,98133.59
2023-04-15T02:13:38.641Z,98122.44
2023-04-15T02:16:16.584Z,98119.63
2023-04-15T02:18:47.531Z,98118.09
2023-04-15T02:21:14.636Z,98127.19
2023-04-15T02:23:41.480Z,98124.28
2023-04-15T02:26:08.290Z,98118.25
2023-04-15T02:28:35.089Z,98119.03
2023-04-15T02:31:06.509Z,98120.56
2023-04-15T02:33:33.571Z,98114.13
2023-04-15T02:36:01.043Z,98110.25
2023-04-15T02:38:28.325Z,98121.13
2023-04-15T02:40:55.448Z,98114.88
2023-04-15T02:43:22.114Z,98122.63
2023-04-15T02:45:50.273Z,98117.69
2023-04-15T02:48:19.391Z,98127.53
2023-04-15T02:50:47.129Z,98128.31
2023-04-15T02:53:15.436Z,98122.84
2023-04-15T02:55:42.932Z,98124.38
2023-04-15T02:58:09.796Z,98123.56
2023-04-15T03:00:36.617Z,98114.19
2023-04-15T03:03:05.704Z,98114.47
2023-04-15T03:05:32.669Z,98115.53
2023-04-15T03:08:01.361Z,98117.16
2023-04-15T03:10:28.462Z,98109.63
2023-04-15T03:12:55.071Z,98118.47
2023-04-15T03:15:23.554Z,98120.25
2023-04-15T03:17:52.307Z,98110.63
2023-04-15T03:20:19.602Z,98103.91
2023-04-15T03:22:47.510Z,98102.91
2023-04-15T03:25:14.235Z,98102.41
2023-04-15T03:27:41.986Z,98101.63
2023-04-15T03:30:09.323Z,98098.78
2023-04-15T03:32:37.999Z,98107.38
2023-04-15T03:35:06.705Z,98102.97
2023-04-15T03:37:33.292Z,98101.41
2023-04-15T03:39:59.863Z,98095.47
2023-04-15T03:42:27.062Z,98094.69
2023-04-15T03:44:53.696Z,98087.69
2023-04-15T03:47:20.461Z,98085.56
2023-04-15T03:49:47.022Z,98084.53
2023-04-15T03:52:13.573Z,98091.75
2023-04-15T03:54:40.186Z,98083.97
2023-04-15T03:57:06.924Z,98088.38
2023-04-15T03:59:33.524Z,98082.38
2023-04-15T04:02:00.250Z,98088.25
2023-04-15T04:04:27.061Z,98081.25
2023-04-15T04:06:53.716Z,98077.66
2023-04-15T04:09:20.627Z,98081.53
2023-04-15T04:11:47.202Z,98095.75
2023-04-15T04:14:13.805Z,98094.13
2023-04-15T04:16:40.636Z,98099.81
2023-04-15T04:19:07.653Z,98091.47
2023-04-15T04:21:34.308Z,98092.03
2023-04-15T04:24:01.054Z,98093.28
2023-04-15T04:26:27.811Z,98089.63
2023-04-15T04:28:54.383Z,98083.69
2023-04-15T04:31:21.259Z,98087.03
2023-04-15T04:33:47.795Z,98090.91
2023-04-15T04:36:14.398Z,98088.88
2023-04-15T04:38:41.010Z,98087.53
2023-04-15T04:41:07.608Z,98090.41
2023-04-15T04:43:34.172Z,98091.19
2023-04-15T04:46:00.776Z,98093.50
2023-04-15T04:48:27.505Z,98098.75
2023-04-15T04:50:54.284Z,98097.91
2023-04-15T04:53:21.131Z,98104.88
2023-04-15T04:55:47.698Z,98108.53
2023-04-15T04:58:14.265Z,98104.94
2023-04-15T05:00:41.185Z,98096.88
2023-04-15T05:03:08.080Z,98103.59
2023-04-15T05:05:36.842Z,98101.56
2023-04-15T05:08:03.467Z,98104.16
2023-04-15T05:10:30.129Z,98109.84
2023-04-15T05:12:57.679Z,98110.34
2023-04-15T05:15:24.626Z,98103.41
2023-04-15T05:17:51.654Z,98110.41
2023-04-15T05:20:18.399Z,98105.78
2023-04-15T05:22:45.045Z,98113.78
2023-04-15T05:25:12.406Z,98113.28
2023-04-15T05:27:38.955Z,98109.84
2023-04-15T05:30:07.209Z,98115.25
2023-04-15T05:32:33.900Z,98120.44
2023-04-15T05:35:01.090Z,98116.78
2023-04-15T05:37:27.708Z,98121.78
2023-04-15T05:39:54.333Z,98117.56
2023-04-15T05:42:21.002Z,98113.16
2023-04-15T05:44:47.623Z,98116.03
2023-04-15T05:47:14.292Z,98124.09
2023-04-15T05:49:41.251Z,98133.97
2023-04-15T05:52:07.798Z,98145.41
2023-04-15T05:54:34.487Z,98140.00
2023-04-15T05:57:01.754Z,98143.66
2023-04-15T05:59:28.704Z,98145.13
2023-04-15T06:01:55.376Z,98143.25
2023-04-15T06:04:22.863Z,98147.41
2023-04-15T06:06:49.629Z,98154.13
2023-04-15T06:09:16.864Z,98152.09
2023-04-15T06:11:43.476Z,98154.69
2023-04-15T06:14:10.162Z,98165.84
2023-04-15T06:16:37.475Z,98165.34
2023-04-15T06:19:04.254Z,98161.97
2023-04-15T06:21:31.636Z,98164.09
2023-04-15T06:24:01.447Z,98165.06
2023-04-15T06:26:28.313Z,98166.84
2023-04-15T06:28:54.998Z,98167.88
2023-04-15T06:31:21.681Z,98175.69
2023-04-15T06:33:48.356Z,98168.88
2023-04-15T06:36:15.458Z,98172.50
2023-04-15T06:38:42.151Z,98167.78
2023-04-15T06:41:09.074Z,98177.34
2023-04-15T06:43:35.716Z,98171.03
2023-04-15T06:46:02.421Z,98180.91
2023-04-15T06:48:30.270Z,98183.25
2023-04-15T06:50:58.291Z,98184.78
2023-04-15T06:53:30.513Z,98179.81
2023-04-15T06:55:57.054Z,98186.53
2023-04-15T06:58:23.692Z,98180.78
2023-04-15T07:00:50.405Z,98188.59
2023-04-15T07:03:17.750Z,98195.88
2023-04-15T07:05:44.835Z,98197.78
2023-04-15T07:08:11.431Z,98199.31
2023-04-15T07:10:38.163Z,98203.94
2023-04-15T07:13:05.787Z,98204.78
2023-04-15T07:15:32.411Z,98201.97
2023-04-15T07:18:00.435Z,98206.34
2023-04-15T07:20:27.286Z,98209.69
2023-04-15T07:22:53.946Z,98217.22
2023-04-15T07:25:20.830Z,98213.28
2023-04-15T07:27:47.539Z,98219.53
2023-04-15T07:30:14.139Z,98224.38
2023-04-15T07:32:41.809Z,98227.47
2023-04-15T07:35:09.675Z,98228.03
2023-04-15T07:37:36.651Z,98234.34
2023-04-15T07:40:04.947Z,98232.53
2023-04-15T07:42:31.573Z,98242.13
2023-04-15T07:44:58.202Z,98233.78
2023-04-15T07:47:24.897Z,98238.44
2023-04-15T07:49:52.980Z,98229.09
2023-04-15T07:52:19.563Z,98229.78
2023-04-15T07:54:46.203Z,98238.22
2023-04-15T07:57:13.847Z,98243.56
2023-04-15T07:59:40.465Z,98232.56
2023-04-15T08:02:07.771Z,98243.56
2023-04-15T08:04:35.693Z,98244.78
2023-04-15T08:07:02.886Z,98250.25
2023-04-15T08:09:31.144Z,98254.88
2023-04-15T08:11:58.098Z,98250.66
2023-04-15T08:14:24.698Z,98264.56
2023-04-15T08:16:51.505Z,98267.09
2023-04-15T08:19:18.047Z,98264.00
2023-04-15T08:21:44.758Z,98262.75
2023-04-15T08:24:11.571Z,98267.88
2023-04-15T08:26:38.205Z,98276.09
2023-04-15T08:29:05.086Z,98277.63
2023-04-15T08:31:32.045Z,98282.84
2023-04-15T08:33:59.385Z,98273.97
2023-04-15T08:36:27.026Z,98275.81
2023-04-15T08:38:53.629Z,98275.75
2023-04-15T08:41:25.580Z,98275.75
2023-04-15T08:44:02.601Z,98278.69
2023-04-15T08:46:31.471Z,98282.19
2023-04-15T08:48:58.897Z,98280.66
2023-04-15T08:51:27.170Z,98285.28
2023-04-15T08:53:55.209Z,98289.91
2023-04-15T08:56:26.985Z,98285.00
2023-04-15T08:58:53.818Z,98298.66
2023-04-15T09:01:21.145Z,98295.84
2023-04-15T09:03:50.458Z,98302.81
2023-04-15T09:06:18.375Z,98303.28
2023-04-15T09:08:45.128Z,98307.34
2023-04-15T09:11:12.290Z,98309.84
2023-04-15T09:13:39.204Z,98310.97
2023-04-15T09:16:06.675Z,98321.53
2023-04-15T09:18:34.851Z,98315.47
2023-04-15T09:21:11.735Z,98320.09
2023-04-15T09:23:41.191Z,98326.84
2023-04-15T09:26:08.353Z,98327.50
2023-04-15T09:28:42.442Z,98325.81
2023-04-15T09:31:10.399Z,98326.44
2023-04-15T09:33:55.808Z,98324.25
2023-04-15T09:36:22.575Z,98327.81
2023-04-15T09:38:57.233Z,98336.53
2023-04-15T09:41:25.720Z,98335.75
2023-04-15T09:43:52.600Z,98347.88
2023-04-15T09:46:19.473Z,98353.50
2023-04-15T09:48:46.233Z,98357.16
2023-04-15T09:51:13.029Z,98350.78
2023-04-15T09:53:39.630Z,98355.28
2023-04-15T09:56:07.969Z,98360.53
2023-04-15T09:58:36.116Z,98360.53
2023-04-15T10:01:06.373Z,98358.44
2023-04-15T10:03:36.858Z,98356.53
2023-04-15T10:06:04.126Z,98367.16
2023-04-15T10:08:33.671Z,98359.91
2023-04-15T10:11:02.368Z,98373.34
2023-04-15T10:13:33.349Z,98376.19
2023-04-15T10:16:06.404Z,98377.25
2023-04-15T10:18:36.194Z,98382.97
2023-04-15T10:21:02.808Z,98375.09
2023-04-15T10:23:29.356Z,98384.16
2023-04-15T10:25:57.521Z,98384.94
2023-04-15T10:28:24.875Z,98377.06
2023-04-15T10:30:53.436Z,98387.41
2023-04-15T10:33:23.220Z,98381.16
2023-04-15T10:35:53.085Z,98387.34
2023-04-15T10:38:43.130Z,98389.88
2023-04-15T10:41:23.641Z,98387.25
2023-04-15T10:44:16.743Z,98387.09
2023-04-15T10:46:47.330Z,98394.56
2023-04-15T10:49:15.211Z,98389.56
2023-04-15T10:51:47.620Z,98386.69
2023-04-15T10:54:32.142Z,98389.75
2023-04-15T10:57:01.918Z,98395.25
2023-04-15T10:59:32.827Z,98403.19
2023-04-15T11:02:05.933Z,98397.06
2023-04-15T11:04:55.463Z,98397.53
2023-04-15T11:07:40.726Z,98396.72
2023-04-15T11:10:13.477Z,98404.09
2023-04-15T11:12:41.953Z,98401.28
2023-04-15T11:15:33.134Z,98413.16
2023-04-15T11:18:10.337Z,98408.31
2023-04-15T11:20:38.361Z,98414.38
2023-04-15T11:23:13.938Z,98423.47
2023-04-15T11:25:43.608Z,98428.00
2023-04-15T11:28:11.963Z,98428.56
2023-04-15T11:30:40.050Z,98424.94
2023-04-15T11:33:09.590Z,98429.53
2023-04-15T11:35:36.394Z,98433.72
2023-04-15T11:38:04.530Z,98436.34
2023-04-15T11:40:33.387Z,98442.44
2023-04-15T11:43:12.467Z,98442.91
2023-04-15T11:46:00.417Z,98439.72
2023-04-15T11:48:32.810Z,98446.59
2023-04-15T11:51:06.965Z,98446.97
2023-04-15T11:53:37.157Z,98444.16
2023-04-15T11:56:03.974Z,98455.06
2023-04-15T11:58:30.527Z,98454.22
2023-04-15T12:01:00.274Z,98453.34
2023-04-15T12:03:29.359Z,98464.94
2023-04-15T12:06:11.849Z,98459.44
2023-04-15T12:08:51.116Z,98464.34
2023-04-15T12:11:17.989Z,98472.66
2023-04-15T12:13:46.160Z,98464.94
2023-04-15T12:16:12.791Z,98471.00
2023-04-15T12:18:39.482Z,98484.16
2023-04-15T12:21:12.226Z,98485.13
2023-04-15T12:23:40.333Z,98472.84
2023-04-15T12:26:07.741Z,98484.94
2023-04-15T12:28:37.020Z,98486.50
2023-04-15T12:31:10.617Z,98495.88
2023-04-15T12:33:37.745Z,98496.25
2023-04-15T12:36:04.684Z,98495.84
2023-04-15T12:38:34.371Z,98496.97
2023-04-15T12:41:01.211Z,98514.06
2023-04-15T12:43:27.830Z,98505.63
2023-04-15T12:45:56.736Z,98514.81
2023-04-15T12:48:23.458Z,98507.75
2023-04-15T12:50:50.104Z,98515.00
2023-04-15T12:53:17.721Z,98504.97
2023-04-15T12:55:44.286Z,98512.63
2023-04-15T12:58:12.050Z,98518.25
2023-04-15T13:00:39.001Z,98513.81
2023-04-15T13:03:07.059Z,98529.66
2023-04-15T13:05:34.090Z,98529.66
2023-04-15T13:08:00.898Z,98529.16
2023-04-15T13:10:28.308Z,98535.16
2023-04-15T13:12:56.583Z,98540.94
2023-04-15T13:15:23.581Z,98536.50
2023-04-15T13:17:50.557Z,98532.94
2023-04-15T13:20:17.518Z,98536.81
2023-04-15T13:22:44.245Z,98545.03
2023-04-15T13:25:10.827Z,98549.66
2023-04-15T13:27:37.564Z,98544.47
2023-04-15T13:30:05.519Z,98538.38
2023-04-15T13:32:32.219Z,98541.66
2023-04-15T13:34:59.395Z,98546.00
2023-04-15T13:37:27.957Z,98549.69
2023-04-15T13:39:56.254Z,98552.16
2023-04-15T13:42:24.496Z,98554.56
2023-04-15T13:44:51.655Z,98559.09
2023-04-15T13:47:19.704Z,98562.28
2023-04-15T13:49:46.345Z,98554.31
2023-04-15T13:52:12.991Z,98564.81
2023-04-15T13:54:39.865Z,98557.81
2023-04-15T13:57:07.016Z,98559.38
2023-04-15T13:59:35.010Z,98565.00
2023-04-15T14:02:02.303Z,98561.03
2023-04-15T14:04:29.048Z,98562.88
2023-04-15T14:06:56.351Z,98555.97
2023-04-15T14:09:26.202Z,98564.34
2023-04-15T14:11:53.163Z,98563.16
2023-04-15T14:14:19.773Z,98573.72
2023-04-15T14:16:46.537Z,98574.38
2023-04-15T14:19:13.189Z,98579.63
2023-04-15T14:21:40.507Z,98577.22
2023-04-15T14:24:07.117Z,98586.91
2023-04-15T14:26:34.510Z,98595.13
2023-04-15T14:29:01.121Z,98599.69
2023-04-15T14:31:27.718Z,98604.44
2023-04-15T14:33:54.407Z,98609.28
2023-04-15T14:36:21.021Z,98603.66
2023-04-15T14:38:48.700Z,98602.78
2023-04-15T14:41:16.153Z,98608.88
2023-04-15T14:43:42.820Z,98605.47
2023-04-15T14:46:10.936Z,98616.31
2023-04-15T14:48:37.759Z,98614.66
2023-04-15T14:51:04.495Z,98617.00
2023-04-15T14:53:31.244Z,98616.81
2023-04-15T14:55:58.301Z,98619.13
2023-04-15T14:58:25.358Z,98621.44
2023-04-15T15:00:52.036Z,98635.66
2023-04-15T15:03:18.954Z,98635.94
2023-04-15T15:05:46.990Z,98630.44
2023-04-15T15:08:14.338Z,98640.50
2023-04-15T15:10:48.559Z,98647.19
2023-04-15T15:13:17.508Z,98638.66
2023-04-15T15:15:44.233Z,98644.56
2023-04-15T15:18:11.508Z,98651.22
2023-04-15T15:20:38.291Z,98646.00
2023-04-15T15:23:05.026Z,98655.41
2023-04-15T15:25:32.077Z,98659.47
2023-04-15T15:27:58.702Z,98666.25
2023-04-15T15:30:25.483Z,98666.44
2023-04-15T15:32:52.194Z,98670.69
2023-04-15T15:35:18.935Z,98670.97
2023-04-15T15:37:46.031Z,98673.03
2023-04-15T15:40:12.944Z,98682.13
2023-04-15T15:42:39.726Z,98676.78
2023-04-15T15:45:07.003Z,98684.63
2023-04-15T15:47:33.726Z,98689.38
2023-04-15T15:50:02.590Z,98682.78
2023-04-15T15:52:30.296Z,98690.25
2023-04-15T15:54:56.968Z,98693.72
2023-04-15T15:57:23.540Z,98691.03
2023-04-15T15:59:53.099Z,98694.59
2023-04-15T16:02:45.855Z,98699.22
2023-04-15T16:05:12.525Z,98697.56
2023-04-15T16:07:39.937Z,98706.25
2023-04-15T16:10:07.197Z,98698.72
2023-04-15T16:12:35.065Z,98712.25
2023-04-15T16:15:01.948Z,98702.88
2023-04-15T16:17:29.794Z,98717.28
2023-04-15T16:20:00.728Z,98719.38
2023-04-15T16:22:28.245Z,98712.13
2023-04-15T16:24:55.851Z,98713.88
2023-04-15T16:27:23.469Z,98715.34
2023-04-15T16:29:50.148Z,98725.13
2023-04-15T16:32:16.848Z,98723.00
2023-04-15T16:34:43.492Z,98729.38
2023-04-15T16:37:10.226Z,98725.78
2023-04-15T16:39:37.370Z,98729.84
2023-04-15T16:42:04.154Z,98727.56
2023-04-15T16:44:30.853Z,98731.88
2023-04-15T16:46:57.683Z,98732.53
2023-04-15T16:49:24.249Z,98732.81
2023-04-15T16:51:51.421Z,98736.28
2023-04-15T16:54:19.282Z,98742.47
2023-04-15T16:56:46.145Z,98746.34
2023-04-15T16:59:12.958Z,98743.03
2023-04-15T17:01:40.129Z,98748.81
2023-04-15T17:04:08.162Z,98752.06
2023-04-15T17:06:34.870Z,98756.38
2023-04-15T17:09:01.607Z,98759.00
2023-04-15T17:11:28.421Z,98757.22
2023-04-15T17:13:55.208Z,98757.28
2023-04-15T17:16:21.930Z,98768.56
2023-04-15T17:18:50.275Z,98766.03
2023-04-15T17:21:17.661Z,98765.03
2023-04-15T17:23:44.473Z,98775.25
2023-04-15T17:26:11.418Z,98783.34
2023-04-15T17:28:38.056Z,98780.31
2023-04-15T17:31:05.186Z,98777.78
2023-04-15T17:34:03.017Z,98784.09
2023-04-15T17:36:18.584Z,98788.59
2023-04-15T17:38:45.680Z,98785.25
2023-04-15T17:41:12.475Z,98793.59
2023-04-15T17:43:39.217Z,98788.16
2023-04-15T17:46:08.935Z,98807.72
2023-04-15T17:48:35.815Z,98816.34
2023-04-15T17:51:02.840Z,98818.75
2023-04-15T17:53:29.485Z,98816.97
2023-04-15T17:55:57.710Z,98822.72
2023-04-15T17:58:24.335Z,98825.09
2023-04-15T18:00:51.095Z,98824.38
2023-04-15T18:03:17.873Z,98828.81
2023-04-15T18:05:44.836Z,98830.91
2023-04-15T18:08:11.558Z,98830.41
2023-04-15T18:10:38.858Z,98835.38
2023-04-15T18:13:06.064Z,98836.97
2023-04-15T18:15:33.303Z,98844.56
2023-04-15T18:18:00.496Z,98844.31
2023-04-15T18:20:27.853Z,98846.44
2023-04-15T18:22:55.677Z,98850.63
2023-04-15T18:25:22.293Z,98856.09
2023-04-15T18:27:49.314Z,98859.53
2023-04-15T18:30:16.317Z,98863.44
2023-04-15T18:32:43.320Z,98864.50
2023-04-15T18:35:10.176Z,98869.19
2023-04-15T18:37:36.877Z,98874.34
2023-04-15T18:40:03.814Z,98878.47
2023-04-15T18:42:30.469Z,98882.41
2023-04-15T18:44:57.235Z,98881.38
2023-04-15T18:47:26.899Z,98882.47
2023-04-15T18:49:54.047Z,98879.41
2023-04-15T18:52:20.989Z,98896.59
2023-04-15T18:54:47.590Z,98893.75
2023-04-15T18:57:14.205Z,98889.88
2023-04-15T18:59:47.155Z,98895.63
2023-04-15T19:02:13.724Z,98887.84
2023-04-15T19:04:40.398Z,98905.31
2023-04-15T19:07:07.809Z,98902.97
2023-04-15T19:09:34.422Z,98904.00
2023-04-15T19:12:01.729Z,98910.00
2023-04-15T19:14:28.550Z,98910.53
2023-04-15T19:16:55.363Z,98915.50
2023-04-15T19:19:22.155Z,98921.47
2023-04-15T19:21:50.320Z,98919.94
2023-04-15T19:24:18.201Z,98925.91
2023-04-15T19:26:48.449Z,98928.00
2023-04-15T19:29:15.086Z,98929.03
2023-04-15T19:31:41.822Z,98937.63
2023-04-15T19:34:08.428Z,98938.94
2023-04-15T19:36:35.359Z,98934.28
2023-04-15T19:39:02.404Z,98937.91
2023-04-15T19:41:29.838Z,98936.63
2023-04-15T19:43:56.692Z,98940.78
2023-04-15T19:46:23.670Z,98945.72
2023-04-15T19:48:50.307Z,98944.69
2023-04-15T19:51:16.927Z,98943.91
2023-04-15T19:53:43.829Z,98947.81
2023-04-15T19:56:10.962Z,98948.88
2023-04-15T19:58:37.761Z,98951.50
2023-04-15T20:01:04.472Z,98949.16
2023-04-15T20:03:31.459Z,98955.41
2023-04-15T20:05:58.220Z,98958.53
2023-04-15T20:08:25.018Z,98961.66
2023-04-15T20:10:51.617Z,98961.66
2023-04-15T20:13:18.247Z,98966.88
2023-04-15T20:15:44.940Z,98966.09
2023-04-15T20:18:11.582Z,98973.63
2023-04-15T20:20:39.691Z,98975.97
2023-04-15T20:23:06.687Z,98977.28
2023-04-15T20:25:33.305Z,98984.53
2023-04-15T20:28:01.089Z,98986.34
2023-04-15T20:30:29.151Z,98986.88
2023-04-15T20:32:56.138Z,98990.75
2023-04-15T20:35:22.977Z,98995.41
2023-04-15T20:37:49.680Z,98988.66
2023-04-15T20:40:16.291Z,98999.03
2023-04-15T20:42:43.690Z,98995.94
2023-04-15T20:45:10.644Z,98997.22
2023-04-15T20:47:37.503Z,99005.53
2023-04-15T20:50:04.525Z,99001.13
2023-04-15T20:52:31.112Z,98999.56
2023-04-15T20:54:57.709Z,99008.41
2023-04-15T20:57:27.038Z,99001.38
2023-04-15T20:59:53.698Z,99008.41
2023-04-15T21:02:20.555Z,99013.06
2023-04-15T21:04:47.268Z,99010.47
2023-04-15T21:07:14.718Z,99013.06
2023-04-15T21:09:42.975Z,99016.72
2023-04-15T21:12:11.105Z,99016.47
2023-04-15T21:14:39.432Z,99017.00
2023-04-15T21:17:11.161Z,99027.13
2023-04-15T21:19:38.751Z,99028.19
2023-04-15T21:22:05.549Z,99036.22
2023-04-15T21:24:32.162Z,99038.81
2023-04-15T21:26:58.809Z,99040.38
2023-04-15T21:29:25.985Z,99043.25
2023-04-15T21:31:52.639Z,99037.78
2023-04-15T21:34:19.275Z,99042.22
2023-04-15T21:36:46.048Z,99043.00
2023-04-15T21:39:12.670Z,99046.88
2023-04-15T21:41:39.223Z,99052.06
2023-04-15T21:44:06.034Z,99053.38
2023-04-15T21:46:35.264Z,99053.63
2023-04-15T21:49:02.977Z,99053.88
2023-04-15T21:51:29.635Z,99051.28
2023-04-15T21:53:56.254Z,99060.91
2023-04-15T21:56:24.229Z,99059.59
2023-04-15T21:58:54.187Z,99062.44
2023-04-15T22:01:21.068Z,99061.91
2023-04-15T22:03:47.989Z,99069.44
2023-04-15T22:06:14.691Z,99069.16
2023-04-15T22:08:53.118Z,99076.97
2023-04-15T22:11:26.961Z,99075.66
2023-04-15T22:13:54.653Z,99074.34
2023-04-15T22:16:21.401Z,99074.34
2023-04-15T22:18:48.164Z,99077.47
2023-04-15T22:21:15.018Z,99076.69
2023-04-15T22:23:41.687Z,99084.22
2023-04-15T22:26:08.325Z,99082.66
2023-04-15T22:28:34.975Z,99086.03
2023-04-15T22:31:02.340Z,99085.78
2023-04-15T22:33:29.349Z,99098.50
2023-04-15T22:35:57.101Z,99100.56
2023-04-15T22:38:24.589Z,99100.84
2023-04-15T22:40:53.837Z,99104.22
2023-04-15T22:43:20.493Z,99110.19
2023-04-15T22:45:50.729Z,99104.22
2023-04-15T22:48:18.501Z,99107.84
2023-04-15T22:50:45.216Z,99112.78
2023-04-15T22:53:12.182Z,99111.75
2023-04-15T22:55:38.767Z,99117.22
2023-04-15T22:58:05.531Z,99113.56
2023-04-15T23:00:32.172Z,99114.06
2023-04-15T23:02:58.890Z,99120.56
2023-04-15T23:05:25.609Z,99123.94
2023-04-15T23:07:52.284Z,99124.97
2023-04-15T23:10:18.841Z,99126.78
2023-04-15T23:12:45.560Z,99123.94
2023-04-15T23:15:12.086Z,99126.25
2023-04-15T23:17:38.863Z,99135.34
2023-04-15T23:20:06.838Z,99130.66
2023-04-15T23:22:37.451Z,99126.75
2023-04-15T23:25:04.716Z,99132.94
2023-04-15T23:27:31.384Z,99129.53
2023-04-15T23:29:58.002Z,99125.09
2023-04-15T23:32:24.589Z,99134.41
2023-04-15T23:34:52.209Z,99145.56
2023-04-15T23:37:19.061Z,99138.03
2023-04-15T23:39:45.730Z,99138.53
2023-04-15T23:42:12.677Z,99138.78
2023-04-15T23:44:39.254Z,99136.44
2023-04-15T23:47:05.971Z,99138.75
2023-04-15T23:49:32.719Z,99134.84
2023-04-15T23:51:59.308Z,99142.59
2023-04-15T23:54:25.915Z,99146.22
2023-04-15T23:56:52.480Z,99142.06
2023-04-15T23:59:19.135Z,99140.75
